Time;durP1;ratioP1;P1;durP2;ratioP2;P2;SDS_P1;SDS_P2;PMS_P1;PMS_P2;Temp;Humidity;BMP_temperature;BMP_pressure;BME280_temperature;BME280_humidity;BME280_pressure;Samples;Min_cycle;Max_cycle;Signal;HPM_P1;HPM_P2
2022/12/23 00:00:13;;;;;;;99.15;59.90;;;;;;;;;;4922895;29;20339;-83
2022/12/23 00:03:16;;;;;;;99.45;61.25;;;;;;;;;;4905975;29;20168;-83
2022/12/23 00:05:42;;;;;;;113.63;64.88;;;;;;;;;;4922437;29;20127;-83
2022/12/23 00:08:08;;;;;;;112.93;64.47;;;;;;;;;;4922715;29;20035;-83
2022/12/23 00:10:38;;;;;;;110.10;65.80;;;;;;;;;;4922534;29;20293;-83
2022/12/23 00:15:49;;;;;;;126.78;69.22;;;;;;;;;;4922543;29;20079;-83
2022/12/23 00:18:15;;;;;;;123.60;70.95;;;;;;;;;;4922496;29;20068;-83
2022/12/23 00:20:41;;;;;;;128.23;72.95;;;;;;;;;;4922234;29;20071;-82
2022/12/23 00:23:07;;;;;;;144.48;76.85;;;;;;;;;;4921996;29;20052;-83
2022/12/23 00:25:40;;;;;;;128.93;73.07;;;;;;;;;;4905225;29;20036;-82
2022/12/23 00:28:13;;;;;;;148.07;82.40;;;;;;;;;;4922434;29;20150;-83
2022/12/23 00:30:47;;;;;;;143.38;81.30;;;;;;;;;;4922202;29;20091;-83
2022/12/23 00:33:14;;;;;;;135.75;79.28;;;;;;;;;;4921996;29;20107;-83
2022/12/23 00:35:40;;;;;;;128.43;78.25;;;;;;;;;;4922201;29;20303;-82
2022/12/23 00:38:06;;;;;;;135.55;78.60;;;;;;;;;;4921913;29;20363;-83
2022/12/23 00:43:17;;;;;;;124.05;73.00;;;;;;;;;;4922190;29;20034;-83
2022/12/23 00:45:43;;;;;;;132.40;76.65;;;;;;;;;;4921998;29;20032;-82
2022/12/23 00:50:54;;;;;;;109.82;63.10;;;;;;;;;;4921861;29;20035;-82
2022/12/23 00:53:20;;;;;;;104.97;62.83;;;;;;;;;;4921637;29;20028;-83
2022/12/23 00:55:46;;;;;;;104.38;60.83;;;;;;;;;;4921490;29;20062;-82
2022/12/23 00:58:19;;;;;;;103.93;62.72;;;;;;;;;;4904733;29;20131;-83
2022/12/23 01:06:15;;;;;;;111.80;63.28;;;;;;;;;;4919431;29;20091;-83
2022/12/23 01:08:41;;;;;;;107.80;62.65;;;;;;;;;;4921527;29;20032;-83
2022/12/23 01:11:08;;;;;;;114.57;64.72;;;;;;;;;;4921780;29;20028;-83
2022/12/23 01:13:35;;;;;;;108.88;63.45;;;;;;;;;;4904792;29;20043;-83
2022/12/23 01:16:05;;;;;;;105.75;62.88;;;;;;;;;;4921429;29;20309;-83
2022/12/23 01:18:31;;;;;;;108.40;60.45;;;;;;;;;;4921337;29;20334;-82
2022/12/23 01:21:01;;;;;;;108.18;61.40;;;;;;;;;;4921237;29;20024;-82
2022/12/23 01:23:27;;;;;;;106.93;62.70;;;;;;;;;;4921363;29;20029;-82
2022/12/23 01:26:00;;;;;;;104.10;60.60;;;;;;;;;;4921143;29;20099;-83
2022/12/23 01:28:27;;;;;;;109.20;62.28;;;;;;;;;;4921357;29;20028;-83
2022/12/23 01:30:53;;;;;;;101.57;59.60;;;;;;;;;;4904594;29;20028;-83
2022/12/23 01:33:19;;;;;;;100.47;60.35;;;;;;;;;;4921481;29;20028;-83
2022/12/23 01:35:46;;;;;;;107.20;62.15;;;;;;;;;;4904414;29;20423;-83
2022/12/23 01:38:12;;;;;;;107.35;60.50;;;;;;;;;;4920715;29;20032;-83
2022/12/23 01:40:40;;;;;;;105.60;61.95;;;;;;;;;;4921122;29;20029;-83
2022/12/23 01:43:06;;;;;;;102.03;61.17;;;;;;;;;;4921217;29;20020;-83
2022/12/23 01:45:32;;;;;;;104.53;61.65;;;;;;;;;;4904129;29;20028;-83
2022/12/23 01:48:01;;;;;;;102.38;61.85;;;;;;;;;;4920910;29;20063;-83
2022/12/23 01:50:36;;;;;;;105.97;61.80;;;;;;;;;;4920551;29;20315;-82
2022/12/23 01:53:21;;;;;;;106.18;62.35;;;;;;;;;;4920860;29;20111;-83
2022/12/23 01:55:47;;;;;;;103.47;60.85;;;;;;;;;;4921048;29;20024;-83
2022/12/23 01:58:16;;;;;;;111.80;62.58;;;;;;;;;;4904010;29;20442;-82
2022/12/23 02:03:42;;;;;;;107.65;62.90;;;;;;;;;;4921019;29;20426;-83
2022/12/23 02:09:18;;;;;;;108.10;63.67;;;;;;;;;;4924722;29;20039;-83
2022/12/23 02:11:56;;;;;;;105.63;63.35;;;;;;;;;;4924523;29;20032;-83
2022/12/23 02:20:28;;;;;;;103.13;60.95;;;;;;;;;;4924391;29;20100;-83
2022/12/23 02:23:14;;;;;;;111.97;63.50;;;;;;;;;;4924482;29;20127;-83
2022/12/23 02:26:04;;;;;;;111.43;64.70;;;;;;;;;;4924405;29;20050;-83
2022/12/23 02:28:49;;;;;;;112.00;64.03;;;;;;;;;;4907676;29;20420;-83
2022/12/23 02:31:33;;;;;;;108.63;64.85;;;;;;;;;;4924183;29;20070;-83
2022/12/23 02:37:42;;;;;;;109.00;63.15;;;;;;;;;;4924541;29;20026;-83
2022/12/23 02:40:08;;;;;;;97.75;59.47;;;;;;;;;;4887797;29;20458;-83
2022/12/23 02:42:41;;;;;;;103.00;62.15;;;;;;;;;;4903818;29;20047;-83
2022/12/23 02:45:09;;;;;;;107.05;63.47;;;;;;;;;;4914467;29;20036;-83
2022/12/23 02:47:49;;;;;;;114.93;66.57;;;;;;;;;;4924127;29;20040;-83
2022/12/23 02:50:18;;;;;;;113.75;66.07;;;;;;;;;;4923984;29;20024;-82
2022/12/23 02:52:46;;;;;;;121.47;68.65;;;;;;;;;;4924159;29;20035;-83
2022/12/23 02:55:14;;;;;;;114.90;68.05;;;;;;;;;;4924183;29;20040;-83
2022/12/23 02:57:42;;;;;;;114.20;67.85;;;;;;;;;;4923951;29;20022;-83
2022/12/23 03:00:08;;;;;;;110.65;63.38;;;;;;;;;;4907006;29;20075;-83
2022/12/23 03:05:40;;;;;;;107.40;62.72;;;;;;;;;;4923642;29;20107;-83
2022/12/23 03:08:11;;;;;;;109.35;64.25;;;;;;;;;;4906953;29;20093;-82
2022/12/23 03:10:49;;;;;;;105.93;63.30;;;;;;;;;;4923583;29;20440;-83
2022/12/23 03:13:15;;;;;;;102.75;62.15;;;;;;;;;;4923519;29;20476;-83
2022/12/23 03:15:50;;;;;;;104.70;61.97;;;;;;;;;;4923363;29;20024;-83
2022/12/23 03:18:19;;;;;;;103.60;63.22;;;;;;;;;;4922910;29;20418;-83
2022/12/23 03:21:15;;;;;;;111.40;64.15;;;;;;;;;;4923319;29;20024;-83
2022/12/23 03:23:45;;;;;;;117.57;63.65;;;;;;;;;;4886978;29;20036;-83
2022/12/23 03:26:20;;;;;;;118.75;65.03;;;;;;;;;;4902919;29;20048;-82
2022/12/23 03:28:52;;;;;;;106.43;63.78;;;;;;;;;;4902721;29;20043;-83
2022/12/23 03:31:22;;;;;;;109.22;61.42;;;;;;;;;;4902707;29;20036;-83
2022/12/23 03:34:10;;;;;;;114.40;63.08;;;;;;;;;;4902837;29;20434;-83
2022/12/23 03:37:02;;;;;;;108.53;63.63;;;;;;;;;;4886655;29;20044;-83
2022/12/23 03:39:38;;;;;;;114.60;62.15;;;;;;;;;;4898973;29;20032;-83
2022/12/23 03:42:08;;;;;;;131.35;67.85;;;;;;;;;;4886738;29;20035;-83
2022/12/23 03:44:36;;;;;;;127.95;68.70;;;;;;;;;;4902492;29;20055;-83
2022/12/23 03:47:14;;;;;;;123.32;66.78;;;;;;;;;;4902639;29;20037;-83
2022/12/23 03:49:42;;;;;;;109.80;63.53;;;;;;;;;;4886655;29;20032;-83
2022/12/23 03:52:11;;;;;;;102.05;58.90;;;;;;;;;;4902284;29;20025;-83
2022/12/23 03:54:44;;;;;;;111.13;65.22;;;;;;;;;;4902295;29;20036;-83
2022/12/23 03:57:11;;;;;;;116.63;63.92;;;;;;;;;;4902234;29;20044;-83
2022/12/23 03:59:39;;;;;;;108.75;63.50;;;;;;;;;;4908675;29;20040;-82
2022/12/23 04:02:05;;;;;;;104.82;62.00;;;;;;;;;;4922799;29;20067;-83
2022/12/23 04:05:00;;;;;;;102.18;61.50;;;;;;;;;;4922327;29;20060;-82
2022/12/23 04:07:49;;;;;;;104.40;61.67;;;;;;;;;;4901973;29;20040;-83
2022/12/23 04:10:15;;;;;;;102.45;59.83;;;;;;;;;;4827823;29;20034;-82
2022/12/23 04:12:42;;;;;;;101.60;62.17;;;;;;;;;;4812969;29;20429;-83
2022/12/23 04:15:08;;;;;;;104.53;63.30;;;;;;;;;;4827757;29;20123;-82
2022/12/23 04:17:34;;;;;;;102.82;59.85;;;;;;;;;;4827635;29;20054;-82
2022/12/23 04:20:00;;;;;;;100.05;61.53;;;;;;;;;;4812553;29;20045;-83
2022/12/23 04:22:26;;;;;;;107.95;62.75;;;;;;;;;;4826528;29;20054;-82
2022/12/23 04:24:52;;;;;;;107.70;63.65;;;;;;;;;;4827527;29;20445;-82
2022/12/23 04:27:18;;;;;;;106.43;61.60;;;;;;;;;;4811885;29;20042;-81
2022/12/23 04:29:45;;;;;;;106.55;63.05;;;;;;;;;;4826739;29;20079;-81
2022/12/23 04:32:11;;;;;;;101.47;62.25;;;;;;;;;;4827456;29;20034;-81
2022/12/23 04:34:37;;;;;;;117.35;61.97;;;;;;;;;;4827326;29;20062;-82
2022/12/23 04:37:03;;;;;;;113.20;61.35;;;;;;;;;;4811993;29;20043;-82
2022/12/23 04:39:29;;;;;;;107.57;60.42;;;;;;;;;;4812026;29;20045;-82
2022/12/23 04:41:55;;;;;;;105.47;60.85;;;;;;;;;;4826061;29;20038;-86
2022/12/23 04:44:21;;;;;;;137.02;72.05;;;;;;;;;;4841027;29;20049;-86
2022/12/23 04:46:47;;;;;;;117.60;65.10;;;;;;;;;;4871518;29;20316;-86
2022/12/23 04:49:32;;;;;;;114.22;64.60;;;;;;;;;;4905485;29;20024;-86
2022/12/23 04:51:58;;;;;;;102.72;62.45;;;;;;;;;;4922348;29;20084;-87
2022/12/23 04:54:24;;;;;;;136.98;73.15;;;;;;;;;;4922192;29;20028;-86
2022/12/23 04:56:50;;;;;;;133.80;71.40;;;;;;;;;;4905394;29;20122;-87
2022/12/23 04:59:16;;;;;;;139.68;77.07;;;;;;;;;;4921977;29;20047;-86
2022/12/23 05:01:42;;;;;;;155.13;86.97;;;;;;;;;;4921954;29;20072;-86
2022/12/23 05:04:09;;;;;;;170.07;92.57;;;;;;;;;;4904567;29;20028;-86
2022/12/23 05:06:35;;;;;;;142.98;82.97;;;;;;;;;;4905039;29;20048;-87
2022/12/23 05:09:02;;;;;;;156.90;84.18;;;;;;;;;;4904402;29;20032;-87
2022/12/23 05:11:28;;;;;;;146.85;84.53;;;;;;;;;;4921730;29;20036;-86
2022/12/23 05:13:54;;;;;;;148.70;82.13;;;;;;;;;;4921907;29;20315;-87
2022/12/23 05:16:20;;;;;;;129.18;75.38;;;;;;;;;;4922077;29;20055;-87
2022/12/23 05:18:46;;;;;;;127.82;74.13;;;;;;;;;;4921235;29;20408;-86
2022/12/23 05:21:12;;;;;;;134.23;77.85;;;;;;;;;;4905009;29;20442;-86
2022/12/23 05:23:39;;;;;;;122.30;71.22;;;;;;;;;;4904399;29;20032;-87
2022/12/23 05:26:05;;;;;;;121.57;71.10;;;;;;;;;;4921849;29;20028;-87
2022/12/23 05:28:31;;;;;;;127.40;70.63;;;;;;;;;;4922047;29;20331;-87
2022/12/23 05:30:58;;;;;;;121.00;70.60;;;;;;;;;;4920768;29;20048;-87
2022/12/23 05:33:24;;;;;;;122.85;74.05;;;;;;;;;;4921486;29;20028;-87
2022/12/23 05:35:50;;;;;;;125.35;71.40;;;;;;;;;;4921505;29;20028;-87
2022/12/23 05:38:16;;;;;;;119.78;71.63;;;;;;;;;;4904748;29;20420;-86
2022/12/23 05:40:42;;;;;;;161.75;89.05;;;;;;;;;;4904715;29;20032;-87
2022/12/23 05:43:08;;;;;;;152.20;84.80;;;;;;;;;;4921219;29;20020;-86
2022/12/23 05:45:37;;;;;;;141.07;80.60;;;;;;;;;;4921432;29;20455;-87
2022/12/23 05:48:03;;;;;;;176.05;90.82;;;;;;;;;;4921152;29;20040;-87
2022/12/23 05:50:29;;;;;;;266.67;110.53;;;;;;;;;;4921331;29;20360;-87
2022/12/23 05:52:56;;;;;;;241.75;103.25;;;;;;;;;;4921247;29;20050;-87
2022/12/23 05:55:23;;;;;;;265.83;108.85;;;;;;;;;;4921347;29;20029;-87
2022/12/23 05:57:49;;;;;;;315.65;116.97;;;;;;;;;;4921476;29;20103;-87
2022/12/23 06:00:15;;;;;;;267.80;105.65;;;;;;;;;;4904410;29;20028;-87
2022/12/23 06:02:42;;;;;;;250.10;101.75;;;;;;;;;;4921244;29;20343;-87
2022/12/23 06:05:08;;;;;;;235.45;98.88;;;;;;;;;;4920892;29;20056;-86
2022/12/23 06:07:34;;;;;;;233.23;99.07;;;;;;;;;;4904560;29;20028;-88
2022/12/23 06:10:00;;;;;;;254.48;107.55;;;;;;;;;;4903824;29;20040;-86
2022/12/23 06:12:26;;;;;;;257.33;107.28;;;;;;;;;;4921104;29;20028;-88
2022/12/23 06:14:52;;;;;;;239.13;107.60;;;;;;;;;;4903803;29;20051;-88
2022/12/23 06:17:19;;;;;;;282.40;115.07;;;;;;;;;;4903684;29;20565;-87
2022/12/23 06:19:46;;;;;;;287.23;119.13;;;;;;;;;;4904173;29;20028;-87
2022/12/23 06:22:12;;;;;;;282.40;116.47;;;;;;;;;;4920859;29;20039;-87
2022/12/23 06:24:38;;;;;;;236.18;105.72;;;;;;;;;;4903566;29;20036;-87
2022/12/23 06:27:04;;;;;;;295.58;118.25;;;;;;;;;;4921141;29;20115;-88
2022/12/23 06:29:30;;;;;;;288.52;114.00;;;;;;;;;;4920829;29;20079;-87
2022/12/23 06:31:57;;;;;;;299.27;118.40;;;;;;;;;;4920908;29;20419;-87
2022/12/23 06:34:23;;;;;;;353.90;133.82;;;;;;;;;;4903499;29;20342;-88
2022/12/23 06:36:49;;;;;;;395.70;142.10;;;;;;;;;;4903527;29;20036;-88
2022/12/23 06:39:15;;;;;;;418.00;142.27;;;;;;;;;;4921014;29;20051;-88
2022/12/23 06:41:41;;;;;;;425.13;148.48;;;;;;;;;;4920870;29;20034;-88
2022/12/23 06:44:07;;;;;;;587.88;219.18;;;;;;;;;;4920862;29;20020;-89
2022/12/23 06:46:33;;;;;;;645.08;236.15;;;;;;;;;;4920864;29;20043;-87
2022/12/23 06:48:59;;;;;;;723.08;246.88;;;;;;;;;;4920754;29;20028;-86
2022/12/23 06:51:25;;;;;;;653.58;227.85;;;;;;;;;;4903472;29;20044;-87
2022/12/23 06:53:51;;;;;;;641.63;223.20;;;;;;;;;;4923782;29;20162;-87
2022/12/23 06:56:17;;;;;;;645.03;231.00;;;;;;;;;;4907638;29;20491;-87
2022/12/23 06:58:43;;;;;;;590.78;208.45;;;;;;;;;;4907531;29;20032;-87
2022/12/23 07:01:10;;;;;;;485.92;176.55;;;;;;;;;;4924486;29;20044;-88
2022/12/23 07:03:36;;;;;;;496.13;171.25;;;;;;;;;;4924190;29;20111;-88
2022/12/23 07:06:02;;;;;;;508.00;169.50;;;;;;;;;;4923748;29;20439;-88
2022/12/23 07:08:28;;;;;;;451.45;161.63;;;;;;;;;;4924240;29;20161;-89
2022/12/23 07:10:58;;;;;;;477.50;165.95;;;;;;;;;;4924114;29;20032;-88
2022/12/23 07:13:24;;;;;;;492.48;168.70;;;;;;;;;;4924100;29;20028;-88
2022/12/23 07:15:50;;;;;;;486.58;162.48;;;;;;;;;;4906604;29;20086;-88
2022/12/23 07:18:16;;;;;;;439.55;153.65;;;;;;;;;;4907350;29;20036;-88
2022/12/23 07:20:42;;;;;;;405.75;150.07;;;;;;;;;;4923881;29;20036;-89
2022/12/23 07:23:08;;;;;;;363.67;143.90;;;;;;;;;;4923773;29;20030;-90
2022/12/23 07:25:34;;;;;;;402.85;154.55;;;;;;;;;;4923729;29;20134;-88
2022/12/23 07:28:01;;;;;;;485.98;168.00;;;;;;;;;;4924007;29;20063;-91
2022/12/23 07:30:28;;;;;;;482.10;157.13;;;;;;;;;;4907073;29;20071;-89
2022/12/23 07:32:54;;;;;;;519.22;169.00;;;;;;;;;;4907078;29;20028;-88
2022/12/23 07:35:20;;;;;;;515.47;158.57;;;;;;;;;;4923292;29;20020;-88
2022/12/23 07:37:50;;;;;;;429.42;134.05;;;;;;;;;;4906842;29;20032;-89
2022/12/23 07:40:16;;;;;;;405.83;131.27;;;;;;;;;;4923514;29;20423;-88
2022/12/23 07:42:42;;;;;;;315.75;116.32;;;;;;;;;;4923640;29;20078;-87
2022/12/23 07:45:08;;;;;;;294.73;115.65;;;;;;;;;;4923510;29;20025;-88
2022/12/23 07:47:35;;;;;;;314.10;123.25;;;;;;;;;;4923414;29;20028;-88
2022/12/23 07:50:01;;;;;;;388.08;136.70;;;;;;;;;;4923288;29;20324;-89
2022/12/23 07:52:28;;;;;;;525.92;222.45;;;;;;;;;;4906588;29;20032;-89
2022/12/23 07:54:54;;;;;;;514.90;234.35;;;;;;;;;;4923333;29;20084;-88
2022/12/23 07:57:20;;;;;;;546.92;255.70;;;;;;;;;;4923319;29;20050;-88
2022/12/23 07:59:46;;;;;;;562.33;269.75;;;;;;;;;;4906563;29;20072;-87
2022/12/23 08:02:12;;;;;;;527.55;252.68;;;;;;;;;;4906532;29;20135;-87
2022/12/23 08:04:39;;;;;;;522.60;254.20;;;;;;;;;;4921718;29;20052;-88
2022/12/23 08:07:05;;;;;;;478.02;231.93;;;;;;;;;;4922987;29;20024;-87
2022/12/23 08:09:31;;;;;;;437.45;194.55;;;;;;;;;;4922679;29;20028;-87
2022/12/23 08:11:57;;;;;;;422.65;184.35;;;;;;;;;;4922846;29;20035;-87
2022/12/23 08:14:23;;;;;;;401.60;157.57;;;;;;;;;;4922808;29;20047;-87
2022/12/23 08:16:49;;;;;;;228.32;118.63;;;;;;;;;;4923162;29;20406;-88
2022/12/23 08:19:15;;;;;;;211.30;116.95;;;;;;;;;;4922867;29;20055;-87
2022/12/23 08:21:41;;;;;;;217.52;114.95;;;;;;;;;;4922711;29;20024;-87
2022/12/23 08:24:07;;;;;;;198.38;112.35;;;;;;;;;;4922466;29;20148;-86
2022/12/23 08:26:33;;;;;;;208.45;111.07;;;;;;;;;;4922858;29;20024;-87
2022/12/23 08:29:00;;;;;;;185.68;104.63;;;;;;;;;;4905717;29;20052;-87
2022/12/23 08:31:27;;;;;;;189.52;102.95;;;;;;;;;;4922567;29;20092;-87
2022/12/23 08:33:54;;;;;;;200.23;103.05;;;;;;;;;;4922465;29;20095;-88
2022/12/23 08:36:25;;;;;;;222.18;103.15;;;;;;;;;;4922890;29;20433;-88
2022/12/23 08:38:52;;;;;;;227.48;102.80;;;;;;;;;;4922222;29;20036;-88
2022/12/23 08:41:20;;;;;;;255.45;111.53;;;;;;;;;;4922480;29;20024;-87
2022/12/23 08:43:46;;;;;;;229.07;113.35;;;;;;;;;;4905608;29;20144;-87
2022/12/23 08:46:12;;;;;;;257.30;124.10;;;;;;;;;;4905574;29;20063;-88
2022/12/23 08:48:39;;;;;;;220.77;115.68;;;;;;;;;;4922457;29;20047;-87
2022/12/23 08:51:06;;;;;;;208.05;117.82;;;;;;;;;;4922136;29;20095;-88
2022/12/23 08:53:33;;;;;;;201.48;111.65;;;;;;;;;;4905942;29;20127;-87
2022/12/23 08:56:03;;;;;;;187.57;108.32;;;;;;;;;;4905607;29;20048;-87
2022/12/23 08:58:30;;;;;;;186.38;109.78;;;;;;;;;;4922127;29;20035;-88
2022/12/23 09:00:56;;;;;;;178.10;107.95;;;;;;;;;;4922222;29;20020;-87
2022/12/23 09:03:22;;;;;;;177.38;110.75;;;;;;;;;;4905298;29;20442;-87
2022/12/23 09:05:48;;;;;;;189.50;112.65;;;;;;;;;;4893161;29;20074;-88
2022/12/23 09:08:14;;;;;;;181.88;112.35;;;;;;;;;;4886389;29;20037;-87
2022/12/23 09:10:42;;;;;;;200.02;121.40;;;;;;;;;;4886477;29;20073;-87
2022/12/23 09:13:10;;;;;;;190.65;117.88;;;;;;;;;;4886498;29;20305;-87
2022/12/23 09:15:40;;;;;;;197.07;117.72;;;;;;;;;;4902430;29;20032;-87
2022/12/23 09:18:06;;;;;;;218.93;130.20;;;;;;;;;;4902878;29;20028;-87
2022/12/23 09:20:32;;;;;;;210.90;129.13;;;;;;;;;;4886211;29;20029;-87
2022/12/23 09:22:59;;;;;;;198.88;122.55;;;;;;;;;;4886244;29;20127;-87
2022/12/23 09:25:25;;;;;;;196.82;118.97;;;;;;;;;;4903064;29;20029;-87
2022/12/23 09:27:51;;;;;;;189.55;116.35;;;;;;;;;;4886207;29;20041;-87
2022/12/23 09:30:17;;;;;;;192.50;120.38;;;;;;;;;;4886188;29;20064;-87
2022/12/23 09:32:43;;;;;;;178.85;110.68;;;;;;;;;;4886291;29;20072;-87
2022/12/23 09:35:09;;;;;;;163.18;106.45;;;;;;;;;;4885999;29;20388;-87
2022/12/23 09:37:36;;;;;;;164.07;100.90;;;;;;;;;;4885875;29;20052;-87
2022/12/23 09:40:04;;;;;;;160.65;99.47;;;;;;;;;;4902511;29;20112;-88
2022/12/23 09:42:48;;;;;;;139.25;86.00;;;;;;;;;;4885983;29;20028;-88
2022/12/23 09:45:19;;;;;;;140.32;86.53;;;;;;;;;;4902635;29;20459;-87
2022/12/23 09:47:45;;;;;;;135.00;84.28;;;;;;;;;;4885926;29;20412;-87
2022/12/23 09:50:26;;;;;;;130.02;81.85;;;;;;;;;;4902804;29;20028;-87
2022/12/23 09:53:01;;;;;;;128.45;83.18;;;;;;;;;;4886098;29;20036;-87
2022/12/23 09:55:47;;;;;;;126.28;80.47;;;;;;;;;;4902254;29;20033;-87
2022/12/23 09:58:31;;;;;;;107.82;73.28;;;;;;;;;;4885453;29;20033;-87
2022/12/23 10:01:16;;;;;;;100.50;67.57;;;;;;;;;;4902647;29;20364;-87
2022/12/23 10:03:45;;;;;;;112.30;72.13;;;;;;;;;;4885785;29;20428;-86
2022/12/23 10:06:14;;;;;;;112.35;72.80;;;;;;;;;;4900541;29;20147;-87
2022/12/23 10:08:47;;;;;;;108.75;70.20;;;;;;;;;;4904323;29;20044;-87
2022/12/23 10:11:19;;;;;;;105.78;69.45;;;;;;;;;;4904438;29;20048;-89
2022/12/23 10:13:45;;;;;;;;;;;;;;;;;;4904944;29;20028;-86
2022/12/23 10:16:16;;;;;;;108.05;67.20;;;;;;;;;;4904322;29;19914;-86
2022/12/23 10:18:47;;;;;;;107.15;70.88;;;;;;;;;;4904352;29;20036;-86
2022/12/23 10:21:30;;;;;;;111.77;74.13;;;;;;;;;;4904417;29;20028;-86
2022/12/23 10:23:56;;;;;;;;;;;;;;;;;;4921737;29;20053;-86
2022/12/23 10:26:29;;;;;;;116.20;71.60;;;;;;;;;;4921314;29;19942;-86
2022/12/23 10:29:16;;;;;;;108.43;67.97;;;;;;;;;;4907633;29;20091;-85
2022/12/23 10:32:11;;;;;;;108.32;69.95;;;;;;;;;;4908029;29;20047;-85
2022/12/23 10:34:40;;;;;;;117.65;74.43;;;;;;;;;;4848313;29;20034;-87
2022/12/23 10:37:09;;;;;;;111.95;73.07;;;;;;;;;;4848284;29;20037;-86
2022/12/23 10:39:42;;;;;;;108.30;70.88;;;;;;;;;;4848066;29;20113;-87
2022/12/23 10:42:20;;;;;;;114.57;76.35;;;;;;;;;;4848413;29;20347;-86
2022/12/23 10:44:57;;;;;;;110.38;71.90;;;;;;;;;;4848089;29;20034;-86
2022/12/23 10:47:43;;;;;;;124.55;71.63;;;;;;;;;;4848208;29;20104;-86
2022/12/23 10:50:15;;;;;;;97.43;65.75;;;;;;;;;;4793497;29;20067;-86
2022/12/23 10:52:42;;;;;;;99.15;64.80;;;;;;;;;;4793425;30;20103;-86
2022/12/23 10:55:15;;;;;;;100.90;65.30;;;;;;;;;;4793613;30;20332;-87
2022/12/23 10:57:41;;;;;;;109.22;66.45;;;;;;;;;;4793362;30;20088;-86
2022/12/23 11:00:18;;;;;;;98.80;63.72;;;;;;;;;;4793300;30;20031;-86
2022/12/23 11:02:46;;;;;;;101.53;63.38;;;;;;;;;;4793384;30;20369;-86
2022/12/23 11:05:19;;;;;;;95.97;64.45;;;;;;;;;;4793079;30;20052;-86
2022/12/23 11:07:45;;;;;;;100.13;67.00;;;;;;;;;;4793374;30;20083;-86
2022/12/23 11:10:14;;;;;;;103.07;66.70;;;;;;;;;;4799628;29;20066;-86
2022/12/23 11:12:41;;;;;;;95.65;64.60;;;;;;;;;;4829317;29;20042;-85
2022/12/23 11:15:26;;;;;;;104.38;66.90;;;;;;;;;;4829217;29;20176;-85
2022/12/23 11:18:03;;;;;;;98.50;66.80;;;;;;;;;;4829265;29;20489;-85
2022/12/23 11:20:29;;;;;;;100.50;68.10;;;;;;;;;;4829241;29;20042;-86
2022/12/23 11:23:03;;;;;;;104.30;65.70;;;;;;;;;;4813981;29;20027;-86
2022/12/23 11:25:29;;;;;;;94.05;63.97;;;;;;;;;;4828913;29;20034;-87
2022/12/23 11:28:15;;;;;;;94.20;63.30;;;;;;;;;;4904103;29;20080;-87
2022/12/23 11:30:58;;;;;;;103.30;70.55;;;;;;;;;;4923512;29;20036;-87
2022/12/23 11:33:29;;;;;;;100.38;67.80;;;;;;;;;;4923443;29;20052;-87
2022/12/23 11:36:00;;;;;;;101.95;66.00;;;;;;;;;;4923747;29;20036;-86
2022/12/23 11:38:27;;;;;;;97.53;63.67;;;;;;;;;;4906453;29;20043;-86
2022/12/23 11:40:53;;;;;;;84.68;55.22;;;;;;;;;;4923605;29;20032;-86
2022/12/23 11:43:19;;;;;;;81.57;53.70;;;;;;;;;;4923359;29;20035;-87
2022/12/23 11:45:45;;;;;;;73.25;50.50;;;;;;;;;;4923612;29;20052;-87
2022/12/23 11:48:30;;;;;;;80.57;54.30;;;;;;;;;;4923375;29;20035;-87
2022/12/23 11:51:00;;;;;;;80.10;55.30;;;;;;;;;;4923351;29;20024;-86
2022/12/23 11:53:26;;;;;;;83.40;55.70;;;;;;;;;;4906527;29;20404;-86
2022/12/23 11:56:07;;;;;;;84.85;53.63;;;;;;;;;;4906771;29;20127;-86
2022/12/23 11:58:44;;;;;;;86.05;55.10;;;;;;;;;;4906313;29;20028;-86
2022/12/23 12:01:15;;;;;;;79.13;51.67;;;;;;;;;;4923060;29;20056;-86
2022/12/23 12:03:46;;;;;;;77.03;50.13;;;;;;;;;;4923041;29;20024;-86
2022/12/23 12:06:14;;;;;;;73.18;50.75;;;;;;;;;;4922793;29;20548;-86
2022/12/23 12:08:41;;;;;;;77.40;51.90;;;;;;;;;;4922861;29;20367;-86
2022/12/23 12:11:15;;;;;;;75.07;50.38;;;;;;;;;;4923127;29;20038;-86
2022/12/23 12:13:43;;;;;;;74.55;51.03;;;;;;;;;;4922981;29;20036;-85
2022/12/23 12:16:28;;;;;;;76.40;50.10;;;;;;;;;;4922854;29;20051;-87
2022/12/23 12:18:55;;;;;;;72.97;50.17;;;;;;;;;;4906044;29;20435;-85
2022/12/23 12:21:24;;;;;;;77.53;49.78;;;;;;;;;;4922864;29;20316;-85
2022/12/23 12:23:55;;;;;;;81.40;53.78;;;;;;;;;;4922760;29;20031;-85
2022/12/23 12:26:29;;;;;;;70.40;46.47;;;;;;;;;;4922836;29;20044;-85
2022/12/23 12:29:12;;;;;;;65.60;45.60;;;;;;;;;;4905813;29;20040;-86
2022/12/23 12:31:41;;;;;;;82.30;52.42;;;;;;;;;;4922791;29;20127;-86
2022/12/23 12:34:22;;;;;;;79.43;51.78;;;;;;;;;;4905745;29;20115;-85
2022/12/23 12:37:08;;;;;;;76.22;47.78;;;;;;;;;;4922521;29;20055;-84
2022/12/23 12:39:37;;;;;;;70.20;46.92;;;;;;;;;;4922037;29;20108;-82
2022/12/23 12:42:20;;;;;;;67.57;45.85;;;;;;;;;;4921917;29;20043;-85
2022/12/23 12:45:04;;;;;;;63.17;41.05;;;;;;;;;;4922257;29;20035;-85
2022/12/23 12:47:49;;;;;;;81.97;51.15;;;;;;;;;;4921790;29;20032;-81
2022/12/23 12:50:21;;;;;;;78.55;48.92;;;;;;;;;;4921159;29;20309;-81
2022/12/23 12:52:47;;;;;;;;;;;;;;;;;;4922251;29;20032;-81
2022/12/23 12:55:16;;;;;;;69.53;46.72;;;;;;;;;;4921738;29;19911;-87
2022/12/23 12:57:42;;;;;;;67.80;43.53;;;;;;;;;;4921900;29;20039;-79
2022/12/23 13:00:22;;;;;;;69.90;42.97;;;;;;;;;;4904724;29;20075;-80
2022/12/23 13:03:06;;;;;;;56.85;38.47;;;;;;;;;;4921639;29;20107;-81
2022/12/23 13:05:36;;;;;;;58.88;38.38;;;;;;;;;;4904796;29;20058;-83
2022/12/23 13:08:20;;;;;;;60.28;39.80;;;;;;;;;;4905047;29;20324;-83
2022/12/23 13:10:50;;;;;;;62.50;41.60;;;;;;;;;;4904889;29;20032;-83
2022/12/23 13:13:34;;;;;;;59.50;40.20;;;;;;;;;;4921617;29;20040;-83
2022/12/23 13:16:13;;;;;;;55.80;38.05;;;;;;;;;;4904935;29;20043;-83
2022/12/23 13:18:51;;;;;;;68.70;47.05;;;;;;;;;;4921403;29;20040;-81
2022/12/23 13:21:20;;;;;;;75.20;46.40;;;;;;;;;;4921224;29;20028;-80
2022/12/23 13:24:02;;;;;;;111.05;58.28;;;;;;;;;;4921201;29;20028;-81
2022/12/23 13:26:31;;;;;;;99.63;55.55;;;;;;;;;;4921454;29;20024;-81
2022/12/23 13:29:17;;;;;;;82.78;51.67;;;;;;;;;;4921278;29;20035;-82
2022/12/23 13:31:54;;;;;;;75.57;48.00;;;;;;;;;;4920678;29;20376;-82
2022/12/23 13:34:25;;;;;;;76.60;49.58;;;;;;;;;;4920988;29;20039;-81
2022/12/23 13:36:51;;;;;;;74.88;49.30;;;;;;;;;;4920946;29;20075;-81
2022/12/23 13:39:27;;;;;;;66.45;44.08;;;;;;;;;;4920856;29;20479;-81
2022/12/23 13:41:54;;;;;;;74.47;46.60;;;;;;;;;;4920889;29;20067;-81
2022/12/23 13:44:21;;;;;;;70.15;46.65;;;;;;;;;;4921014;29;20025;-82
2022/12/23 13:47:06;;;;;;;78.28;52.28;;;;;;;;;;4904194;29;20059;-82
2022/12/23 13:49:32;;;;;;;152.48;111.10;;;;;;;;;;4920956;29;20107;-82
2022/12/23 13:52:17;;;;;;;730.45;574.38;;;;;;;;;;4904286;29;20087;-81
2022/12/23 13:54:50;;;;;;;728.45;519.92;;;;;;;;;;4921033;29;20474;-82
2022/12/23 13:57:19;;;;;;;709.15;508.63;;;;;;;;;;4903501;29;20056;-82
2022/12/23 13:59:56;;;;;;;344.15;231.68;;;;;;;;;;4920708;29;20032;-81
2022/12/23 14:02:34;;;;;;;711.85;452.40;;;;;;;;;;4906498;29;20441;-82
2022/12/23 14:05:01;;;;;;;270.50;149.18;;;;;;;;;;4902124;29;20479;-81
2022/12/23 14:07:27;;;;;;;740.63;452.35;;;;;;;;;;4905947;29;20036;-82
2022/12/23 14:09:55;;;;;;;484.90;279.27;;;;;;;;;;4905472;29;20048;-82
2022/12/23 14:12:28;;;;;;;1999.90;948.10;;;;;;;;;;4889126;29;20068;-82
2022/12/23 14:15:03;;;;;;;722.20;420.45;;;;;;;;;;4905750;29;20029;-82
2022/12/23 14:17:52;;;;;;;522.55;284.95;;;;;;;;;;4905681;29;20036;-81
2022/12/23 14:20:34;;;;;;;790.28;508.02;;;;;;;;;;4811599;29;20049;-82
2022/12/23 14:23:18;;;;;;;413.70;251.85;;;;;;;;;;4810238;29;20043;-82
2022/12/23 14:25:53;;;;;;;495.00;322.13;;;;;;;;;;4811264;29;20062;-81
2022/12/23 14:28:25;;;;;;;553.70;352.95;;;;;;;;;;4811571;29;20053;-81
2022/12/23 14:30:51;;;;;;;680.22;441.08;;;;;;;;;;4811437;29;20517;-82
2022/12/23 14:33:25;;;;;;;1471.32;778.45;;;;;;;;;;4811506;29;20058;-81
2022/12/23 14:36:09;;;;;;;1002.30;559.22;;;;;;;;;;4811388;29;20062;-81
2022/12/23 14:38:35;;;;;;;590.97;324.40;;;;;;;;;;4811101;29;20039;-81
2022/12/23 14:41:22;;;;;;;430.67;225.13;;;;;;;;;;4811169;29;20083;-81
2022/12/23 14:43:54;;;;;;;526.28;282.95;;;;;;;;;;4810967;29;20101;-81
2022/12/23 14:46:35;;;;;;;277.60;147.63;;;;;;;;;;4811278;29;20250;-81
2022/12/23 14:49:01;;;;;;;594.60;345.33;;;;;;;;;;4811084;29;20035;-81
2022/12/23 14:51:35;;;;;;;678.88;363.00;;;;;;;;;;4811206;29;20068;-81
2022/12/23 14:54:01;;;;;;;524.35;279.55;;;;;;;;;;4811026;29;20046;-81